sensor_id;sensor_type;location;lat;lon;timestamp;pressure;altitude;pressure_sealevel;temperature
34310;BMP280;61664;48.112;11.662;2023-04-19T00:00:04;95895.22;;;13.56
34310;BMP280;61664;48.112;11.662;2023-04-19T00:02:34;95897.38;;;13.52
34310;BMP280;61664;48.112;11.662;2023-04-19T00:05:01;95901.78;;;13.55
34310;BMP280;61664;48.112;11.662;2023-04-19T00:07:28;95892.63;;;13.47
34310;BMP280;61664;48.112;11.662;2023-04-19T00:09:55;95891.91;;;13.47
34310;BMP280;61664;48.112;11.662;2023-04-19T00:12:22;95882.63;;;13.48
34310;BMP280;61664;48.112;11.662;2023-04-19T00:14:49;95888.00;;;13.48
34310;BMP280;61664;48.112;11.662;2023-04-19T00:17:16;95897.06;;;13.50
34310;BMP280;61664;48.112;11.662;2023-04-19T00:19:43;95888.75;;;13.48
34310;BMP280;61664;48.112;11.662;2023-04-19T00:22:10;95877.66;;;13.41
34310;BMP280;61664;48.112;11.662;2023-04-19T00:24:37;95875.41;;;13.39
34310;BMP280;61664;48.112;11.662;2023-04-19T00:27:04;95881.34;;;13.43
34310;BMP280;61664;48.112;11.662;2023-04-19T00:29:31;95886.53;;;13.47
34310;BMP280;61664;48.112;11.662;2023-04-19T00:31:58;95875.41;;;13.39
34310;BMP280;61664;48.112;11.662;2023-04-19T00:34:24;95870.44;;;13.32
34310;BMP280;61664;48.112;11.662;2023-04-19T00:36:51;95883.47;;;13.39
34310;BMP280;61664;48.112;11.662;2023-04-19T00:39:18;95873.56;;;13.31
34310;BMP280;61664;48.112;11.662;2023-04-19T00:41:45;95877.28;;;13.33
34310;BMP280;61664;48.112;11.662;2023-04-19T00:44:15;95861.53;;;13.26
34310;BMP280;61664;48.112;11.662;2023-04-19T00:46:42;95869.50;;;13.35
34310;BMP280;61664;48.112;11.662;2023-04-19T00:49:10;95860.91;;;13.31
34310;BMP280;61664;48.112;11.662;2023-04-19T00:51:37;95869.31;;;13.39
34310;BMP280;61664;48.112;11.662;2023-04-19T00:54:04;95855.81;;;13.33
34310;BMP280;61664;48.112;11.662;2023-04-19T00:56:33;95869.50;;;13.35
34310;BMP280;61664;48.112;11.662;2023-04-19T00:59:01;95868.03;;;13.34
34310;BMP280;61664;48.112;11.662;2023-04-19T01:01:28;95841.41;;;13.16
34310;BMP280;61664;48.112;11.662;2023-04-19T01:03:56;95862.81;;;13.31
34310;BMP280;61664;48.112;11.662;2023-04-19T01:06:23;95853.78;;;13.28
34310;BMP280;61664;48.112;11.662;2023-04-19T01:08:50;95865.50;;;13.31
34310;BMP280;61664;48.112;11.662;2023-04-19T01:11:16;95840.84;;;13.12
34310;BMP280;61664;48.112;11.662;2023-04-19T01:13:43;95856.72;;;13.30
34310;BMP280;61664;48.112;11.662;2023-04-19T01:16:10;95861.19;;;13.33
34310;BMP280;61664;48.112;11.662;2023-04-19T01:18:37;95852.09;;;13.31
34310;BMP280;61664;48.112;11.662;2023-04-19T01:21:07;95847.47;;;13.31
34310;BMP280;61664;48.112;11.662;2023-04-19T01:23:35;95849.72;;;13.33
34310;BMP280;61664;48.112;11.662;2023-04-19T01:26:02;95841.56;;;13.27
34310;BMP280;61664;48.112;11.662;2023-04-19T01:28:29;95842.41;;;13.33
34310;BMP280;61664;48.112;11.662;2023-04-19T01:30:56;95828.13;;;13.27
34310;BMP280;61664;48.112;11.662;2023-04-19T01:33:23;95836.75;;;13.31
34310;BMP280;61664;48.112;11.662;2023-04-19T01:36:08;95830.81;;;13.27
34310;BMP280;61664;48.112;11.662;2023-04-19T01:38:35;95828.81;;;13.22
34310;BMP280;61664;48.112;11.662;2023-04-19T01:41:02;95829.72;;;13.19
34310;BMP280;61664;48.112;11.662;2023-04-19T01:43:29;95822.59;;;13.16
34310;BMP280;61664;48.112;11.662;2023-04-19T01:45:56;95830.28;;;13.23
34310;BMP280;61664;48.112;11.662;2023-04-19T01:48:22;95821.97;;;13.21
34310;BMP280;61664;48.112;11.662;2023-04-19T01:50:49;95811.88;;;13.16
34310;BMP280;61664;48.112;11.662;2023-04-19T01:53:16;95823.34;;;13.16
34310;BMP280;61664;48.112;11.662;2023-04-19T01:55:43;95820.09;;;13.12
34310;BMP280;61664;48.112;11.662;2023-04-19T01:58:10;95825.38;;;13.07
34310;BMP280;61664;48.112;11.662;2023-04-19T02:00:36;95824.72;;;13.12
34310;BMP280;61664;48.112;11.662;2023-04-19T02:03:03;95821.78;;;13.10
34310;BMP280;61664;48.112;11.662;2023-04-19T02:05:30;95818.25;;;13.04
34310;BMP280;61664;48.112;11.662;2023-04-19T02:07:57;95812.78;;;12.98
34310;BMP280;61664;48.112;11.662;2023-04-19T02:10:24;95807.69;;;13.00
34310;BMP280;61664;48.112;11.662;2023-04-19T02:12:51;95802.50;;;12.97
34310;BMP280;61664;48.112;11.662;2023-04-19T02:15:18;95801.53;;;12.94
34310;BMP280;61664;48.112;11.662;2023-04-19T02:17:45;95808.38;;;12.95
34310;BMP280;61664;48.112;11.662;2023-04-19T02:20:12;95796.97;;;12.85
34310;BMP280;61664;48.112;11.662;2023-04-19T02:22:39;95816.88;;;12.94
34310;BMP280;61664;48.112;11.662;2023-04-19T02:25:06;95807.34;;;12.93
34310;BMP280;61664;48.112;11.662;2023-04-19T02:27:33;95779.75;;;12.77
34310;BMP280;61664;48.112;11.662;2023-04-19T02:30:00;95777.09;;;12.77
34310;BMP280;61664;48.112;11.662;2023-04-19T02:32:27;95792.06;;;12.84
34310;BMP280;61664;48.112;11.662;2023-04-19T02:34:54;95784.38;;;12.77
34310;BMP280;61664;48.112;11.662;2023-04-19T02:37:21;95796.63;;;12.93
34310;BMP280;61664;48.112;11.662;2023-04-19T02:39:48;95789.22;;;12.87
34310;BMP280;61664;48.112;11.662;2023-04-19T02:42:15;95788.56;;;12.93
34310;BMP280;61664;48.112;11.662;2023-04-19T02:44:42;95775.00;;;12.81
34310;BMP280;61664;48.112;11.662;2023-04-19T02:47:08;95786.81;;;12.89
34310;BMP280;61664;48.112;11.662;2023-04-19T02:49:35;95785.78;;;12.87
34310;BMP280;61664;48.112;11.662;2023-04-19T02:52:07;95765.53;;;12.71
34310;BMP280;61664;48.112;11.662;2023-04-19T02:54:34;95778.84;;;12.80
34310;BMP280;61664;48.112;11.662;2023-04-19T02:57:01;95773.66;;;12.77
34310;BMP280;61664;48.112;11.662;2023-04-19T02:59:28;95772.75;;;12.80
34310;BMP280;61664;48.112;11.662;2023-04-19T03:01:55;95767.75;;;12.73
34310;BMP280;61664;48.112;11.662;2023-04-19T03:04:22;95779.16;;;12.82
34310;BMP280;61664;48.112;11.662;2023-04-19T03:06:49;95776.94;;;12.81
34310;BMP280;61664;48.112;11.662;2023-04-19T03:09:16;95779.16;;;12.82
34310;BMP280;61664;48.112;11.662;2023-04-19T03:11:43;95764.91;;;12.76
34310;BMP280;61664;48.112;11.662;2023-04-19T03:14:10;95761.28;;;12.79
34310;BMP280;61664;48.112;11.662;2023-04-19T03:16:37;95755.63;;;12.77
34310;BMP280;61664;48.112;11.662;2023-04-19T03:19:03;95766.50;;;12.83
34310;BMP280;61664;48.112;11.662;2023-04-19T03:21:30;95743.81;;;12.69
34310;BMP280;61664;48.112;11.662;2023-04-19T03:23:57;95765.00;;;12.82
34310;BMP280;61664;48.112;11.662;2023-04-19T03:26:24;95753.53;;;12.81
34310;BMP280;61664;48.112;11.662;2023-04-19T03:28:52;95751.84;;;12.84
34310;BMP280;61664;48.112;11.662;2023-04-19T03:31:18;95755.84;;;12.88
34310;BMP280;61664;48.112;11.662;2023-04-19T03:33:48;95740.88;;;12.82
34310;BMP280;61664;48.112;11.662;2023-04-19T03:36:16;95747.03;;;12.88
34310;BMP280;61664;48.112;11.662;2023-04-19T03:38:43;95741.88;;;12.84
34310;BMP280;61664;48.112;11.662;2023-04-19T03:41:25;95749.00;;;12.87
34310;BMP280;61664;48.112;11.662;2023-04-19T03:43:52;95729.78;;;12.74
34310;BMP280;61664;48.112;11.662;2023-04-19T03:46:19;95737.44;;;12.81
34310;BMP280;61664;48.112;11.662;2023-04-19T03:48:47;95742.88;;;12.87
34310;BMP280;61664;48.112;11.662;2023-04-19T03:51:14;95746.31;;;12.87
34310;BMP280;61664;48.112;11.662;2023-04-19T03:53:41;95735.03;;;12.83
34310;BMP280;61664;48.112;11.662;2023-04-19T03:56:08;95733.81;;;12.84
34310;BMP280;61664;48.112;11.662;2023-04-19T03:58:35;95722.66;;;12.71
34310;BMP280;61664;48.112;11.662;2023-04-19T04:01:03;95739.66;;;12.83
34310;BMP280;61664;48.112;11.662;2023-04-19T04:03:30;95740.19;;;12.87
34310;BMP280;61664;48.112;11.662;2023-04-19T04:05:57;95743.56;;;12.82
34310;BMP280;61664;48.112;11.662;2023-04-19T04:08:24;95739.09;;;12.79
34310;BMP280;61664;48.112;11.662;2023-04-19T04:10:53;95742.59;;;12.70
34310;BMP280;61664;48.112;11.662;2023-04-19T04:13:20;95741.69;;;12.73
34310;BMP280;61664;48.112;11.662;2023-04-19T04:15:47;95747.78;;;12.74
34310;BMP280;61664;48.112;11.662;2023-04-19T04:18:14;95719.75;;;12.60
34310;BMP280;61664;48.112;11.662;2023-04-19T04:20:43;95738.44;;;12.69
34310;BMP280;61664;48.112;11.662;2023-04-19T04:23:10;95750.03;;;12.75
34310;BMP280;61664;48.112;11.662;2023-04-19T04:25:37;95745.84;;;12.74
34310;BMP280;61664;48.112;11.662;2023-04-19T04:28:05;95737.22;;;12.70
34310;BMP280;61664;48.112;11.662;2023-04-19T04:30:32;95720.69;;;12.57
34310;BMP280;61664;48.112;11.662;2023-04-19T04:32:59;95723.97;;;12.61
34310;BMP280;61664;48.112;11.662;2023-04-19T04:35:26;95746.50;;;12.69
34310;BMP280;61664;48.112;11.662;2023-04-19T04:37:55;95745.84;;;12.60
34310;BMP280;61664;48.112;11.662;2023-04-19T04:40:22;95731.22;;;12.46
34310;BMP280;61664;48.112;11.662;2023-04-19T04:42:49;95750.84;;;12.52
34310;BMP280;61664;48.112;11.662;2023-04-19T04:45:18;95746.66;;;12.51
34310;BMP280;61664;48.112;11.662;2023-04-19T04:47:45;95750.28;;;12.48
34310;BMP280;61664;48.112;11.662;2023-04-19T04:50:12;95740.34;;;12.39
34310;BMP280;61664;48.112;11.662;2023-04-19T04:52:39;95739.09;;;12.35
34310;BMP280;61664;48.112;11.662;2023-04-19T04:55:06;95741.09;;;12.40
34310;BMP280;61664;48.112;11.662;2023-04-19T04:57:33;95744.09;;;12.42
34310;BMP280;61664;48.112;11.662;2023-04-19T05:00:00;95734.25;;;12.39
34310;BMP280;61664;48.112;11.662;2023-04-19T05:02:27;95735.00;;;12.39
34310;BMP280;61664;48.112;11.662;2023-04-19T05:04:54;95745.81;;;12.45
34310;BMP280;61664;48.112;11.662;2023-04-19T05:07:21;95742.59;;;12.41
34310;BMP280;61664;48.112;11.662;2023-04-19T05:09:48;95735.09;;;12.45
34310;BMP280;61664;48.112;11.662;2023-04-19T05:12:15;95720.22;;;12.44
34310;BMP280;61664;48.112;11.662;2023-04-19T05:14:42;95738.72;;;12.56
34310;BMP280;61664;48.112;11.662;2023-04-19T05:17:08;95723.84;;;12.55
34310;BMP280;61664;48.112;11.662;2023-04-19T05:19:35;95738.09;;;12.62
34310;BMP280;61664;48.112;11.662;2023-04-19T05:22:02;95741.03;;;12.64
34310;BMP280;61664;48.112;11.662;2023-04-19T05:24:29;95738.34;;;12.64
34310;BMP280;61664;48.112;11.662;2023-04-19T05:26:56;95739.38;;;12.66
34310;BMP280;61664;48.112;11.662;2023-04-19T05:29:23;95728.66;;;12.66
34310;BMP280;61664;48.112;11.662;2023-04-19T05:31:50;95729.56;;;12.63
34310;BMP280;61664;48.112;11.662;2023-04-19T05:34:17;95731.31;;;12.66
34310;BMP280;61664;48.112;11.662;2023-04-19T05:36:47;95737.88;;;12.65
34310;BMP280;61664;48.112;11.662;2023-04-19T05:39:14;95737.72;;;12.69
34310;BMP280;61664;48.112;11.662;2023-04-19T05:41:42;95725.44;;;12.62
34310;BMP280;61664;48.112;11.662;2023-04-19T05:44:09;95730.78;;;12.62
34310;BMP280;61664;48.112;11.662;2023-04-19T05:46:36;95730.41;;;12.69
34310;BMP280;61664;48.112;11.662;2023-04-19T05:49:03;95735.50;;;12.67
34310;BMP280;61664;48.112;11.662;2023-04-19T05:51:30;95735.78;;;12.69
34310;BMP280;61664;48.112;11.662;2023-04-19T05:53:59;95728.94;;;12.68
34310;BMP280;61664;48.112;11.662;2023-04-19T05:56:26;95730.69;;;12.71
34310;BMP280;61664;48.112;11.662;2023-04-19T05:58:53;95733.19;;;12.75
34310;BMP280;61664;48.112;11.662;2023-04-19T06:01:22;95730.06;;;12.76
34310;BMP280;61664;48.112;11.662;2023-04-19T06:03:49;95706.38;;;12.60
34310;BMP280;61664;48.112;11.662;2023-04-19T06:06:21;95715.25;;;12.66
34310;BMP280;61664;48.112;11.662;2023-04-19T06:08:49;95721.34;;;12.67
34310;BMP280;61664;48.112;11.662;2023-04-19T06:11:20;95725.59;;;12.73
34310;BMP280;61664;48.112;11.662;2023-04-19T06:13:57;95732.97;;;12.78
34310;BMP280;61664;48.112;11.662;2023-04-19T06:16:24;95715.97;;;12.67
34310;BMP280;61664;48.112;11.662;2023-04-19T06:18:51;95727.63;;;12.78
34310;BMP280;61664;48.112;11.662;2023-04-19T06:21:18;95725.75;;;12.70
34310;BMP280;61664;48.112;11.662;2023-04-19T06:23:44;95732.44;;;12.74
34310;BMP280;61664;48.112;11.662;2023-04-19T06:26:11;95733.72;;;12.79
34310;BMP280;61664;48.112;11.662;2023-04-19T06:28:38;95726.50;;;12.70
34310;BMP280;61664;48.112;11.662;2023-04-19T06:31:05;95726.81;;;12.72
34310;BMP280;61664;48.112;11.662;2023-04-19T06:33:32;95730.13;;;12.67
34310;BMP280;61664;48.112;11.662;2023-04-19T06:36:00;95735.59;;;12.73
34310;BMP280;61664;48.112;11.662;2023-04-19T06:38:28;95736.06;;;12.71
34310;BMP280;61664;48.112;11.662;2023-04-19T06:40:55;95719.03;;;12.60
34310;BMP280;61664;48.112;11.662;2023-04-19T06:43:23;95708.22;;;12.54
34310;BMP280;61664;48.112;11.662;2023-04-19T06:46:00;95719.41;;;12.67
34310;BMP280;61664;48.112;11.662;2023-04-19T06:48:27;95721.63;;;12.69
34310;BMP280;61664;48.112;11.662;2023-04-19T06:50:54;95702.19;;;12.59
34310;BMP280;61664;48.112;11.662;2023-04-19T06:53:22;95713.59;;;12.69
34310;BMP280;61664;48.112;11.662;2023-04-19T06:55:57;95722.09;;;12.82
34310;BMP280;61664;48.112;11.662;2023-04-19T06:58:24;95712.94;;;12.88
34310;BMP280;61664;48.112;11.662;2023-04-19T07:00:52;95710.63;;;12.81
34310;BMP280;61664;48.112;11.662;2023-04-19T07:03:19;95712.19;;;12.88
34310;BMP280;61664;48.112;11.662;2023-04-19T07:05:47;95715.25;;;12.96
34310;BMP280;61664;48.112;11.662;2023-04-19T07:08:15;95713.94;;;12.91
34310;BMP280;61664;48.112;11.662;2023-04-19T07:10:42;95696.78;;;12.83
34310;BMP280;61664;48.112;11.662;2023-04-19T07:13:12;95716.06;;;13.02
34310;BMP280;61664;48.112;11.662;2023-04-19T07:15:39;95723.16;;;13.05
34310;BMP280;61664;48.112;11.662;2023-04-19T07:18:06;95715.34;;;13.01
34310;BMP280;61664;48.112;11.662;2023-04-19T07:20:33;95721.31;;;13.11
34310;BMP280;61664;48.112;11.662;2023-04-19T07:23:00;95719.38;;;13.11
34310;BMP280;61664;48.112;11.662;2023-04-19T07:25:27;95685.47;;;12.94
34310;BMP280;61664;48.112;11.662;2023-04-19T07:27:55;95707.91;;;13.11
34310;BMP280;61664;48.112;11.662;2023-04-19T07:30:22;95708.91;;;13.13
34310;BMP280;61664;48.112;11.662;2023-04-19T07:32:49;95703.75;;;13.10
34310;BMP280;61664;48.112;11.662;2023-04-19T07:35:17;95706.69;;;13.12
34310;BMP280;61664;48.112;11.662;2023-04-19T07:37:45;95713.13;;;13.20
34310;BMP280;61664;48.112;11.662;2023-04-19T07:40:12;95702.41;;;13.20
34310;BMP280;61664;48.112;11.662;2023-04-19T07:42:39;95690.75;;;13.23
34310;BMP280;61664;48.112;11.662;2023-04-19T07:45:07;95692.59;;;13.32
34310;BMP280;61664;48.112;11.662;2023-04-19T07:47:34;95685.53;;;13.34
34310;BMP280;61664;48.112;11.662;2023-04-19T07:50:01;95691.50;;;13.44
34310;BMP280;61664;48.112;11.662;2023-04-19T07:52:29;95702.72;;;13.63
34310;BMP280;61664;48.112;11.662;2023-04-19T07:54:55;95692.66;;;13.78
34310;BMP280;61664;48.112;11.662;2023-04-19T07:57:23;95688.13;;;13.89
34310;BMP280;61664;48.112;11.662;2023-04-19T07:59:50;95690.75;;;14.04
34310;BMP280;61664;48.112;11.662;2023-04-19T08:02:16;95691.03;;;14.32
34310;BMP280;61664;48.112;11.662;2023-04-19T08:04:44;95681.47;;;14.57
34310;BMP280;61664;48.112;11.662;2023-04-19T08:07:14;95674.06;;;14.83
34310;BMP280;61664;48.112;11.662;2023-04-19T08:09:41;95693.28;;;15.02
34310;BMP280;61664;48.112;11.662;2023-04-19T08:12:08;95677.13;;;15.02
34310;BMP280;61664;48.112;11.662;2023-04-19T08:14:40;95687.00;;;15.16
34310;BMP280;61664;48.112;11.662;2023-04-19T08:17:26;95686.06;;;15.25
34310;BMP280;61664;48.112;11.662;2023-04-19T08:20:03;95668.94;;;15.22
34310;BMP280;61664;48.112;11.662;2023-04-19T08:22:32;95680.25;;;15.32
34310;BMP280;61664;48.112;11.662;2023-04-19T08:24:59;95690.78;;;15.41
34310;BMP280;61664;48.112;11.662;2023-04-19T08:27:25;95678.13;;;15.53
34310;BMP280;61664;48.112;11.662;2023-04-19T08:29:52;95680.91;;;15.81
34310;BMP280;61664;48.112;11.662;2023-04-19T08:32:19;95680.94;;;16.08
34310;BMP280;61664;48.112;11.662;2023-04-19T08:34:46;95672.41;;;16.27
34310;BMP280;61664;48.112;11.662;2023-04-19T08:37:13;95665.03;;;16.49
34310;BMP280;61664;48.112;11.662;2023-04-19T08:39:40;95668.72;;;16.69
34310;BMP280;61664;48.112;11.662;2023-04-19T08:42:08;95670.91;;;16.81
34310;BMP280;61664;48.112;11.662;2023-04-19T08:44:56;95662.09;;;16.81
34310;BMP280;61664;48.112;11.662;2023-04-19T08:47:34;95670.91;;;16.76
34310;BMP280;61664;48.112;11.662;2023-04-19T08:50:10;95668.00;;;16.57
34310;BMP280;61664;48.112;11.662;2023-04-19T08:52:43;95661.84;;;16.40
34310;BMP280;61664;48.112;11.662;2023-04-19T08:55:26;95668.00;;;16.40
34310;BMP280;61664;48.112;11.662;2023-04-19T08:57:55;95647.41;;;16.26
34310;BMP280;61664;48.112;11.662;2023-04-19T09:00:22;95659.91;;;16.35
34310;BMP280;61664;48.112;11.662;2023-04-19T09:02:51;95667.03;;;16.32
34310;BMP280;61664;48.112;11.662;2023-04-19T09:05:19;95664.56;;;16.34
34310;BMP280;61664;48.112;11.662;2023-04-19T09:07:47;95644.72;;;16.32
34310;BMP280;61664;48.112;11.662;2023-04-19T09:10:18;95639.34;;;16.21
34310;BMP280;61664;48.112;11.662;2023-04-19T09:13:04;95647.13;;;16.19
34310;BMP280;61664;48.112;11.662;2023-04-19T09:15:39;95651.78;;;16.18
34310;BMP280;61664;48.112;11.662;2023-04-19T09:18:09;95644.69;;;16.04
34310;BMP280;61664;48.112;11.662;2023-04-19T09:23:16;95635.56;;;15.68
34310;BMP280;61664;48.112;11.662;2023-04-19T09:25:58;95642.91;;;15.62
34310;BMP280;61664;48.112;11.662;2023-04-19T09:28:30;95622.75;;;15.41
34310;BMP280;61664;48.112;11.662;2023-04-19T09:31:09;95633.50;;;15.35
34310;BMP280;61664;48.112;11.662;2023-04-19T09:34:17;95634.50;;;15.43
34310;BMP280;61664;48.112;11.662;2023-04-19T09:36:44;95632.09;;;15.56
34310;BMP280;61664;48.112;11.662;2023-04-19T09:39:12;95623.31;;;15.67
34310;BMP280;61664;48.112;11.662;2023-04-19T09:41:53;95621.66;;;15.92
34310;BMP280;61664;48.112;11.662;2023-04-19T09:44:20;95598.41;;;16.11
34310;BMP280;61664;48.112;11.662;2023-04-19T09:47:23;95601.31;;;16.46
34310;BMP280;61664;48.112;11.662;2023-04-19T09:50:09;95607.81;;;17.01
34310;BMP280;61664;48.112;11.662;2023-04-19T09:52:51;95599.91;;;17.61
34310;BMP280;61664;48.112;11.662;2023-04-19T09:55:18;95601.31;;;18.33
34310;BMP280;61664;48.112;11.662;2023-04-19T09:57:48;95592.72;;;18.83
34310;BMP280;61664;48.112;11.662;2023-04-19T10:00:16;95590.94;;;18.86
34310;BMP280;61664;48.112;11.662;2023-04-19T10:02:44;95577.59;;;18.45
34310;BMP280;61664;48.112;11.662;2023-04-19T10:05:18;95574.94;;;18.15
34310;BMP280;61664;48.112;11.662;2023-04-19T10:07:48;95575.66;;;17.85
34310;BMP280;61664;48.112;11.662;2023-04-19T10:10:17;95571.19;;;17.58
34310;BMP280;61664;48.112;11.662;2023-04-19T10:12:52;95584.25;;;17.54
34310;BMP280;61664;48.112;11.662;2023-04-19T10:15:24;95564.22;;;17.33
34310;BMP280;61664;48.112;11.662;2023-04-19T10:17:55;95564.97;;;17.33
34310;BMP280;61664;48.112;11.662;2023-04-19T10:20:30;95577.72;;;17.33
34310;BMP280;61664;48.112;11.662;2023-04-19T10:22:59;95573.59;;;17.20
34310;BMP280;61664;48.112;11.662;2023-04-19T10:25:29;95569.47;;;17.14
34310;BMP280;61664;48.112;11.662;2023-04-19T10:27:57;95572.19;;;17.08
34310;BMP280;61664;48.112;11.662;2023-04-19T10:30:24;95559.25;;;16.90
34310;BMP280;61664;48.112;11.662;2023-04-19T10:32:56;95566.41;;;16.82
34310;BMP280;61664;48.112;11.662;2023-04-19T10:35:43;95565.22;;;16.66
34310;BMP280;61664;48.112;11.662;2023-04-19T10:38:13;95558.38;;;16.54
34310;BMP280;61664;48.112;11.662;2023-04-19T10:43:28;95553.53;;;16.36
34310;BMP280;61664;48.112;11.662;2023-04-19T10:46:06;95555.47;;;16.35
34310;BMP280;61664;48.112;11.662;2023-04-19T10:48:40;95533.19;;;16.18
34310;BMP280;61664;48.112;11.662;2023-04-19T10:51:14;95551.09;;;16.16
34310;BMP280;61664;48.112;11.662;2023-04-19T11:01:54;95530.28;;;15.88
34310;BMP280;61664;48.112;11.662;2023-04-19T11:04:57;95525.84;;;15.80
34310;BMP280;61664;48.112;11.662;2023-04-19T11:07:25;95529.78;;;15.79
34310;BMP280;61664;48.112;11.662;2023-04-19T11:09:52;95523.69;;;15.72
34310;BMP280;61664;48.112;11.662;2023-04-19T11:12:20;95518.28;;;15.61
34310;BMP280;61664;48.112;11.662;2023-04-19T11:14:57;95507.72;;;15.52
34310;BMP280;61664;48.112;11.662;2023-04-19T11:17:30;95522.19;;;15.55
34310;BMP280;61664;48.112;11.662;2023-04-19T11:19:59;95510.66;;;15.43
34310;BMP280;61664;48.112;11.662;2023-04-19T11:25:07;95509.19;;;15.42
34310;BMP280;61664;48.112;11.662;2023-04-19T11:27:34;95508.69;;;15.38
34310;BMP280;61664;48.112;11.662;2023-04-19T11:30:07;95498.34;;;15.20
34310;BMP280;61664;48.112;11.662;2023-04-19T11:32:35;95512.06;;;15.16
34310;BMP280;61664;48.112;11.662;2023-04-19T11:35:07;95507.88;;;15.10
34310;BMP280;61664;48.112;11.662;2023-04-19T11:37:36;95502.94;;;14.91
34310;BMP280;61664;48.112;11.662;2023-04-19T11:40:05;95495.50;;;14.70
34310;BMP280;61664;48.112;11.662;2023-04-19T11:42:33;95505.25;;;14.61
34310;BMP280;61664;48.112;11.662;2023-04-19T11:45:00;95495.88;;;14.46
34310;BMP280;61664;48.112;11.662;2023-04-19T11:47:27;95502.44;;;14.39
34310;BMP280;61664;48.112;11.662;2023-04-19T11:49:54;95509.75;;;14.39
34310;BMP280;61664;48.112;11.662;2023-04-19T11:52:24;95501.91;;;14.29
34310;BMP280;61664;48.112;11.662;2023-04-19T11:54:52;95498.22;;;14.27
34310;BMP280;61664;48.112;11.662;2023-04-19T11:57:28;95505.06;;;14.28
34310;BMP280;61664;48.112;11.662;2023-04-19T12:00:08;95498.88;;;14.16
34310;BMP280;61664;48.112;11.662;2023-04-19T12:02:40;95485.88;;;14.09
34310;BMP280;61664;48.112;11.662;2023-04-19T12:05:13;95496.44;;;14.18
34310;BMP280;61664;48.112;11.662;2023-04-19T12:08:00;95510.91;;;14.26
34310;BMP280;61664;48.112;11.662;2023-04-19T12:10:30;95498.69;;;14.25
34310;BMP280;61664;48.112;11.662;2023-04-19T12:12:57;95490.56;;;14.20
34310;BMP280;61664;48.112;11.662;2023-04-19T12:15:45;95497.91;;;14.19
34310;BMP280;61664;48.112;11.662;2023-04-19T12:18:13;95505.94;;;14.14
34310;BMP280;61664;48.112;11.662;2023-04-19T12:20:45;95496.34;;;14.07
34310;BMP280;61664;48.112;11.662;2023-04-19T12:23:14;95500.72;;;13.99
34310;BMP280;61664;48.112;11.662;2023-04-19T12:25:43;95493.09;;;13.92
34310;BMP280;61664;48.112;11.662;2023-04-19T12:28:13;95488.38;;;13.87
34310;BMP280;61664;48.112;11.662;2023-04-19T12:30:41;95491.34;;;13.89
34310;BMP280;61664;48.112;11.662;2023-04-19T12:33:08;95481.56;;;13.86
34310;BMP280;61664;48.112;11.662;2023-04-19T12:35:35;95492.81;;;13.90
34310;BMP280;61664;48.112;11.662;2023-04-19T12:38:04;95498.38;;;13.81
34310;BMP280;61664;48.112;11.662;2023-04-19T12:40:31;95481.63;;;13.66
34310;BMP280;61664;48.112;11.662;2023-04-19T12:42:58;95496.00;;;13.63
34310;BMP280;61664;48.112;11.662;2023-04-19T12:45:25;95488.13;;;13.53
34310;BMP280;61664;48.112;11.662;2023-04-19T12:47:52;95464.28;;;13.35
34310;BMP280;61664;48.112;11.662;2023-04-19T12:50:19;95462.75;;;13.29
34310;BMP280;61664;48.112;11.662;2023-04-19T12:52:46;95481.44;;;13.43
34310;BMP280;61664;48.112;11.662;2023-04-19T12:55:13;95481.28;;;13.52
34310;BMP280;61664;48.112;11.662;2023-04-19T12:57:40;95489.59;;;13.54
34310;BMP280;61664;48.112;11.662;2023-04-19T13:00:08;95464.53;;;13.37
34310;BMP280;61664;48.112;11.662;2023-04-19T13:02:37;95474.59;;;13.42
34310;BMP280;61664;48.112;11.662;2023-04-19T13:05:05;95483.16;;;13.46
34310;BMP280;61664;48.112;11.662;2023-04-19T13:07:32;95485.13;;;13.46
34310;BMP280;61664;48.112;11.662;2023-04-19T13:09:59;95476.31;;;13.45
34310;BMP280;61664;48.112;11.662;2023-04-19T13:12:27;95475.91;;;13.52
34310;BMP280;61664;48.112;11.662;2023-04-19T13:14:54;95476.81;;;13.49
34310;BMP280;61664;48.112;11.662;2023-04-19T13:17:21;95468.69;;;13.38
34310;BMP280;61664;48.112;11.662;2023-04-19T13:19:48;95459.16;;;13.37
34310;BMP280;61664;48.112;11.662;2023-04-19T13:22:14;95473.38;;;13.43
34310;BMP280;61664;48.112;11.662;2023-04-19T13:24:41;95465.09;;;13.41
34310;BMP280;61664;48.112;11.662;2023-04-19T13:27:08;95458.19;;;13.35
34310;BMP280;61664;48.112;11.662;2023-04-19T13:29:36;95457.94;;;13.38
34310;BMP280;61664;48.112;11.662;2023-04-19T13:32:03;95464.84;;;13.45
34310;BMP280;61664;48.112;11.662;2023-04-19T13:37:00;95459.72;;;13.41
34310;BMP280;61664;48.112;11.662;2023-04-19T13:39:27;95465.84;;;13.47
34310;BMP280;61664;48.112;11.662;2023-04-19T13:41:54;95457.81;;;13.47
34310;BMP280;61664;48.112;11.662;2023-04-19T13:44:21;95449.75;;;13.47
34310;BMP280;61664;48.112;11.662;2023-04-19T13:46:48;95455.34;;;13.49
34310;BMP280;61664;48.112;11.662;2023-04-19T13:49:17;95446.53;;;13.43
34310;BMP280;61664;48.112;11.662;2023-04-19T13:51:44;95448.78;;;13.50
34310;BMP280;61664;48.112;11.662;2023-04-19T13:54:17;95458.13;;;13.55
34310;BMP280;61664;48.112;11.662;2023-04-19T13:56:46;95441.84;;;13.38
34310;BMP280;61664;48.112;11.662;2023-04-19T13:59:17;95441.53;;;13.31
34310;BMP280;61664;48.112;11.662;2023-04-19T14:01:43;95438.31;;;13.21
34310;BMP280;61664;48.112;11.662;2023-04-19T14:04:10;95462.00;;;13.28
34310;BMP280;61664;48.112;11.662;2023-04-19T14:06:37;95455.56;;;13.20
34310;BMP280;61664;48.112;11.662;2023-04-19T14:09:04;95461.09;;;13.11
34310;BMP280;61664;48.112;11.662;2023-04-19T14:11:33;95453.75;;;12.85
34310;BMP280;61664;48.112;11.662;2023-04-19T14:14:00;95442.75;;;12.63
34310;BMP280;61664;48.112;11.662;2023-04-19T14:16:26;95476.94;;;12.68
34310;BMP280;61664;48.112;11.662;2023-04-19T14:18:53;95476.78;;;12.57
34310;BMP280;61664;48.112;11.662;2023-04-19T14:21:20;95466.03;;;12.37
34310;BMP280;61664;48.112;11.662;2023-04-19T14:23:47;95477.88;;;12.30